sensor_id;sensor_type;location;lat;lon;timestamp;temperature;humidity
14699;DHT22;7439;50.804;4.602;2022-09-09T01:04:18;35.80;1.00
14699;DHT22;7439;50.804;4.602;2022-09-09T01:06:52;12.50;99.90
14699;DHT22;7439;50.804;4.602;2022-09-09T01:09:25;11.80;99.90
14699;DHT22;7439;50.804;4.602;2022-09-09T01:11:59;11.70;99.90
14699;DHT22;7439;50.804;4.602;2022-09-09T01:14:43;11.70;99.90
14699;DHT22;7439;50.804;4.602;2022-09-09T01:17:15;11.70;99.90
14699;DHT22;7439;50.804;4.602;2022-09-09T01:19:58;11.70;99.90
14699;DHT22;7439;50.804;4.602;2022-09-09T01:22:34;11.80;99.90
14699;DHT22;7439;50.804;4.602;2022-09-09T01:25:28;11.90;99.90
14699;DHT22;7439;50.804;4.602;2022-09-09T01:28:02;11.90;99.90
14699;DHT22;7439;50.804;4.602;2022-09-09T01:30:31;11.90;99.90
14699;DHT22;7439;50.804;4.602;2022-09-09T01:32:59;11.90;99.90
14699;DHT22;7439;50.804;4.602;2022-09-09T01:35:37;11.80;99.90
14699;DHT22;7439;50.804;4.602;2022-09-09T01:38:05;11.90;99.90
14699;DHT22;7439;50.804;4.602;2022-09-09T01:40:32;11.80;99.90
14699;DHT22;7439;50.804;4.602;2022-09-09T01:43:02;11.90;99.90
14699;DHT22;7439;50.804;4.602;2022-09-09T01:45:29;11.90;99.90
14699;DHT22;7439;50.804;4.602;2022-09-09T01:47:57;11.90;99.90
14699;DHT22;7439;50.804;4.602;2022-09-09T01:50:25;12.00;99.90
14699;DHT22;7439;50.804;4.602;2022-09-09T01:52:54;12.00;99.90
14699;DHT22;7439;50.804;4.602;2022-09-09T01:55:28;12.00;99.90
14699;DHT22;7439;50.804;4.602;2022-09-09T01:58:04;11.90;99.90
14699;DHT22;7439;50.804;4.602;2022-09-09T02:00:33;11.90;99.90
14699;DHT22;7439;50.804;4.602;2022-09-09T02:03:09;12.00;99.90
14699;DHT22;7439;50.804;4.602;2022-09-09T02:05:43;12.00;99.90
14699;DHT22;7439;50.804;4.602;2022-09-09T02:08:19;12.00;99.90
14699;DHT22;7439;50.804;4.602;2022-09-09T02:10:52;12.10;99.90
14699;DHT22;7439;50.804;4.602;2022-09-09T02:13:22;12.10;99.90
14699;DHT22;7439;50.804;4.602;2022-09-09T02:15:53;12.30;99.90
14699;DHT22;7439;50.804;4.602;2022-09-09T02:18:25;12.60;99.90
14699;DHT22;7439;50.804;4.602;2022-09-09T02:20:54;12.70;99.90
14699;DHT22;7439;50.804;4.602;2022-09-09T02:23:23;12.70;99.90
14699;DHT22;7439;50.804;4.602;2022-09-09T02:25:52;12.80;99.90
14699;DHT22;7439;50.804;4.602;2022-09-09T02:28:23;12.90;99.90
14699;DHT22;7439;50.804;4.602;2022-09-09T02:30:52;12.90;99.90
14699;DHT22;7439;50.804;4.602;2022-09-09T02:33:24;12.90;99.90
14699;DHT22;7439;50.804;4.602;2022-09-09T02:35:53;12.90;99.90
14699;DHT22;7439;50.804;4.602;2022-09-09T02:38:24;12.90;99.90
14699;DHT22;7439;50.804;4.602;2022-09-09T02:40:53;12.80;99.90
14699;DHT22;7439;50.804;4.602;2022-09-09T02:43:21;12.90;99.90
14699;DHT22;7439;50.804;4.602;2022-09-09T02:45:53;12.90;99.90
14699;DHT22;7439;50.804;4.602;2022-09-09T02:48:28;12.90;99.90
14699;DHT22;7439;50.804;4.602;2022-09-09T02:51:00;13.00;99.90
14699;DHT22;7439;50.804;4.602;2022-09-09T02:53:39;13.00;99.90
14699;DHT22;7439;50.804;4.602;2022-09-09T02:56:11;13.00;99.90
14699;DHT22;7439;50.804;4.602;2022-09-09T02:58:43;13.10;99.90
14699;DHT22;7439;50.804;4.602;2022-09-09T03:01:11;13.10;99.90
14699;DHT22;7439;50.804;4.602;2022-09-09T03:03:39;13.00;99.90
14699;DHT22;7439;50.804;4.602;2022-09-09T03:06:08;13.00;99.90
14699;DHT22;7439;50.804;4.602;2022-09-09T03:08:35;13.00;99.90
14699;DHT22;7439;50.804;4.602;2022-09-09T03:11:02;13.00;99.90
14699;DHT22;7439;50.804;4.602;2022-09-09T03:13:30;13.00;99.90
14699;DHT22;7439;50.804;4.602;2022-09-09T03:15:58;13.00;99.90
14699;DHT22;7439;50.804;4.602;2022-09-09T03:18:25;13.00;99.90
14699;DHT22;7439;50.804;4.602;2022-09-09T03:20:53;13.10;99.90
14699;DHT22;7439;50.804;4.602;2022-09-09T03:23:21;13.10;99.90
14699;DHT22;7439;50.804;4.602;2022-09-09T03:25:49;13.10;99.90
14699;DHT22;7439;50.804;4.602;2022-09-09T03:28:19;13.10;99.90
14699;DHT22;7439;50.804;4.602;2022-09-09T03:30:48;13.10;99.90
14699;DHT22;7439;50.804;4.602;2022-09-09T03:33:18;13.10;99.90
14699;DHT22;7439;50.804;4.602;2022-09-09T03:35:45;13.10;99.90
14699;DHT22;7439;50.804;4.602;2022-09-09T03:38:14;13.10;99.90
14699;DHT22;7439;50.804;4.602;2022-09-09T03:40:48;13.10;99.90
14699;DHT22;7439;50.804;4.602;2022-09-09T03:43:15;13.10;99.90
14699;DHT22;7439;50.804;4.602;2022-09-09T03:45:50;13.10;99.90
14699;DHT22;7439;50.804;4.602;2022-09-09T03:48:19;13.10;99.90
14699;DHT22;7439;50.804;4.602;2022-09-09T03:50:46;13.20;99.90
14699;DHT22;7439;50.804;4.602;2022-09-09T04:05:36;13.20;99.90
14699;DHT22;7439;50.804;4.602;2022-09-09T04:08:08;13.30;99.90
14699;DHT22;7439;50.804;4.602;2022-09-09T04:10:37;13.30;99.90
14699;DHT22;7439;50.804;4.602;2022-09-09T04:13:04;13.40;99.90
14699;DHT22;7439;50.804;4.602;2022-09-09T04:15:32;13.40;99.90
14699;DHT22;7439;50.804;4.602;2022-09-09T04:18:01;13.50;99.90
14699;DHT22;7439;50.804;4.602;2022-09-09T04:20:28;13.50;99.90
14699;DHT22;7439;50.804;4.602;2022-09-09T04:22:57;13.50;99.90
14699;DHT22;7439;50.804;4.602;2022-09-09T04:25:24;13.50;99.90
14699;DHT22;7439;50.804;4.602;2022-09-09T04:27:53;13.60;99.90
14699;DHT22;7439;50.804;4.602;2022-09-09T04:30:20;13.60;99.90
14699;DHT22;7439;50.804;4.602;2022-09-09T04:32:48;13.70;99.90
14699;DHT22;7439;50.804;4.602;2022-09-09T04:35:17;13.70;99.90
14699;DHT22;7439;50.804;4.602;2022-09-09T04:37:46;13.70;99.90
14699;DHT22;7439;50.804;4.602;2022-09-09T04:40:15;13.60;99.90
14699;DHT22;7439;50.804;4.602;2022-09-09T04:45:10;13.60;99.90
14699;DHT22;7439;50.804;4.602;2022-09-09T04:47:39;13.60;99.90
14699;DHT22;7439;50.804;4.602;2022-09-09T04:50:07;13.60;99.90
14699;DHT22;7439;50.804;4.602;2022-09-09T04:52:35;13.60;99.90
14699;DHT22;7439;50.804;4.602;2022-09-09T04:55:03;13.70;99.90
14699;DHT22;7439;50.804;4.602;2022-09-09T04:57:32;13.70;99.90
14699;DHT22;7439;50.804;4.602;2022-09-09T05:00:00;13.60;99.90
14699;DHT22;7439;50.804;4.602;2022-09-09T05:02:28;13.60;99.90
14699;DHT22;7439;50.804;4.602;2022-09-09T05:04:56;13.60;99.90
14699;DHT22;7439;50.804;4.602;2022-09-09T05:07:23;13.60;99.90
14699;DHT22;7439;50.804;4.602;2022-09-09T05:09:51;13.60;99.90
14699;DHT22;7439;50.804;4.602;2022-09-09T05:12:22;13.60;99.90
14699;DHT22;7439;50.804;4.602;2022-09-09T05:14:52;13.60;99.90
14699;DHT22;7439;50.804;4.602;2022-09-09T05:17:22;13.70;99.90
14699;DHT22;7439;50.804;4.602;2022-09-09T05:19:50;13.70;99.90
14699;DHT22;7439;50.804;4.602;2022-09-09T05:22:19;13.80;99.90
14699;DHT22;7439;50.804;4.602;2022-09-09T05:24:47;13.90;99.90
14699;DHT22;7439;50.804;4.602;2022-09-09T05:27:16;13.90;99.90
14699;DHT22;7439;50.804;4.602;2022-09-09T05:29:44;13.90;99.90
14699;DHT22;7439;50.804;4.602;2022-09-09T05:32:13;13.90;99.90
14699;DHT22;7439;50.804;4.602;2022-09-09T05:34:41;13.90;99.90
14699;DHT22;7439;50.804;4.602;2022-09-09T05:37:08;14.00;99.90
14699;DHT22;7439;50.804;4.602;2022-09-09T05:39:36;14.00;99.90
14699;DHT22;7439;50.804;4.602;2022-09-09T05:42:04;14.00;99.90
14699;DHT22;7439;50.804;4.602;2022-09-09T05:44:31;14.10;99.90
14699;DHT22;7439;50.804;4.602;2022-09-09T05:46:58;14.20;99.90
14699;DHT22;7439;50.804;4.602;2022-09-09T05:49:27;14.20;99.90
14699;DHT22;7439;50.804;4.602;2022-09-09T05:51:54;14.30;99.90
14699;DHT22;7439;50.804;4.602;2022-09-09T05:54:22;14.40;99.90
14699;DHT22;7439;50.804;4.602;2022-09-09T05:56:49;14.40;99.90
14699;DHT22;7439;50.804;4.602;2022-09-09T05:59:17;14.40;99.90
14699;DHT22;7439;50.804;4.602;2022-09-09T06:01:44;14.40;99.90
14699;DHT22;7439;50.804;4.602;2022-09-09T06:04:11;14.50;99.90
14699;DHT22;7439;50.804;4.602;2022-09-09T06:06:40;14.50;99.90
14699;DHT22;7439;50.804;4.602;2022-09-09T06:09:09;14.50;99.90
14699;DHT22;7439;50.804;4.602;2022-09-09T06:11:38;14.50;99.90
14699;DHT22;7439;50.804;4.602;2022-09-09T06:14:06;14.50;99.90
14699;DHT22;7439;50.804;4.602;2022-09-09T06:16:34;14.60;99.90
14699;DHT22;7439;50.804;4.602;2022-09-09T06:19:03;14.60;99.90
14699;DHT22;7439;50.804;4.602;2022-09-09T06:21:32;14.60;99.90
14699;DHT22;7439;50.804;4.602;2022-09-09T06:24:01;14.60;99.90
14699;DHT22;7439;50.804;4.602;2022-09-09T06:26:30;14.70;99.90
14699;DHT22;7439;50.804;4.602;2022-09-09T06:28:58;14.70;99.90
14699;DHT22;7439;50.804;4.602;2022-09-09T06:31:27;14.70;99.90
14699;DHT22;7439;50.804;4.602;2022-09-09T06:33:56;14.80;99.90
14699;DHT22;7439;50.804;4.602;2022-09-09T06:36:25;14.80;99.90
14699;DHT22;7439;50.804;4.602;2022-09-09T06:38:53;14.80;99.90
14699;DHT22;7439;50.804;4.602;2022-09-09T06:41:26;15.00;99.90
14699;DHT22;7439;50.804;4.602;2022-09-09T06:43:54;15.10;99.90
14699;DHT22;7439;50.804;4.602;2022-09-09T06:46:23;15.20;1.00
14699;DHT22;7439;50.804;4.602;2022-09-09T06:48:54;15.20;1.00
14699;DHT22;7439;50.804;4.602;2022-09-09T06:51:24;15.20;1.00
14699;DHT22;7439;50.804;4.602;2022-09-09T06:53:53;15.20;1.00
14699;DHT22;7439;50.804;4.602;2022-09-09T06:56:22;15.20;97.20
14699;DHT22;7439;50.804;4.602;2022-09-09T06:58:52;15.20;1.00
14699;DHT22;7439;50.804;4.602;2022-09-09T07:01:22;15.20;99.90
14699;DHT22;7439;50.804;4.602;2022-09-09T07:03:51;15.10;1.00
14699;DHT22;7439;50.804;4.602;2022-09-09T07:06:20;15.20;1.00
14699;DHT22;7439;50.804;4.602;2022-09-09T07:08:52;15.20;92.20
14699;DHT22;7439;50.804;4.602;2022-09-09T07:11:20;15.20;99.90
14699;DHT22;7439;50.804;4.602;2022-09-09T07:13:48;15.20;22.00
14699;DHT22;7439;50.804;4.602;2022-09-09T07:16:19;15.30;99.90
14699;DHT22;7439;50.804;4.602;2022-09-09T07:18:46;15.30;1.00
14699;DHT22;7439;50.804;4.602;2022-09-09T07:21:16;15.40;99.90
14699;DHT22;7439;50.804;4.602;2022-09-09T07:23:47;15.50;99.90
14699;DHT22;7439;50.804;4.602;2022-09-09T07:26:16;15.60;1.00
14699;DHT22;7439;50.804;4.602;2022-09-09T07:28:45;15.50;99.90
14699;DHT22;7439;50.804;4.602;2022-09-09T07:31:14;15.50;99.90
14699;DHT22;7439;50.804;4.602;2022-09-09T07:33:44;15.50;39.00
14699;DHT22;7439;50.804;4.602;2022-09-09T07:36:15;15.50;1.00
14699;DHT22;7439;50.804;4.602;2022-09-09T07:38:44;15.50;1.00
14699;DHT22;7439;50.804;4.602;2022-09-09T07:41:13;15.60;1.00
14699;DHT22;7439;50.804;4.602;2022-09-09T07:43:43;15.50;1.00
14699;DHT22;7439;50.804;4.602;2022-09-09T07:46:11;15.30;1.00
14699;DHT22;7439;50.804;4.602;2022-09-09T07:48:45;15.20;1.00
14699;DHT22;7439;50.804;4.602;2022-09-09T07:51:14;15.20;1.00
14699;DHT22;7439;50.804;4.602;2022-09-09T07:53:42;15.40;1.00
14699;DHT22;7439;50.804;4.602;2022-09-09T07:56:11;15.50;1.00
14699;DHT22;7439;50.804;4.602;2022-09-09T07:58:39;15.50;99.90
14699;DHT22;7439;50.804;4.602;2022-09-09T08:01:08;15.60;99.90
14699;DHT22;7439;50.804;4.602;2022-09-09T08:03:36;15.60;99.90
14699;DHT22;7439;50.804;4.602;2022-09-09T08:06:07;15.60;99.90
14699;DHT22;7439;50.804;4.602;2022-09-09T08:08:35;15.80;99.90
14699;DHT22;7439;50.804;4.602;2022-09-09T08:11:06;15.80;99.90
14699;DHT22;7439;50.804;4.602;2022-09-09T08:13:37;15.80;17.20
14699;DHT22;7439;50.804;4.602;2022-09-09T08:16:06;15.80;25.90
14699;DHT22;7439;50.804;4.602;2022-09-09T08:18:34;16.00;1.00
14699;DHT22;7439;50.804;4.602;2022-09-09T08:21:11;16.20;1.00
14699;DHT22;7439;50.804;4.602;2022-09-09T08:23:39;16.40;1.00
14699;DHT22;7439;50.804;4.602;2022-09-09T08:26:07;16.60;99.90
14699;DHT22;7439;50.804;4.602;2022-09-09T08:28:36;16.50;99.90
14699;DHT22;7439;50.804;4.602;2022-09-09T08:31:07;16.40;99.90
14699;DHT22;7439;50.804;4.602;2022-09-09T08:33:35;16.30;99.90
14699;DHT22;7439;50.804;4.602;2022-09-09T08:36:04;16.30;99.90
14699;DHT22;7439;50.804;4.602;2022-09-09T08:38:41;16.20;99.90
14699;DHT22;7439;50.804;4.602;2022-09-09T08:41:29;16.20;99.90
14699;DHT22;7439;50.804;4.602;2022-09-09T08:44:03;16.20;99.90
14699;DHT22;7439;50.804;4.602;2022-09-09T08:46:37;16.10;99.90
14699;DHT22;7439;50.804;4.602;2022-09-09T08:49:16;16.00;99.90
14699;DHT22;7439;50.804;4.602;2022-09-09T08:51:48;15.70;99.90
14699;DHT22;7439;50.804;4.602;2022-09-09T08:54:17;15.50;1.00
14699;DHT22;7439;50.804;4.602;2022-09-09T08:56:44;15.30;1.00
14699;DHT22;7439;50.804;4.602;2022-09-09T08:59:14;15.20;99.90
14699;DHT22;7439;50.804;4.602;2022-09-09T09:01:54;15.10;99.90
14699;DHT22;7439;50.804;4.602;2022-09-09T09:04:33;15.10;99.90
14699;DHT22;7439;50.804;4.602;2022-09-09T09:07:10;15.00;1.00
14699;DHT22;7439;50.804;4.602;2022-09-09T09:09:49;15.00;1.00
14699;DHT22;7439;50.804;4.602;2022-09-09T09:12:20;15.00;1.00
14699;DHT22;7439;50.804;4.602;2022-09-09T09:14:48;15.00;99.90
14699;DHT22;7439;50.804;4.602;2022-09-09T09:17:18;15.00;99.90
14699;DHT22;7439;50.804;4.602;2022-09-09T09:19:46;15.00;99.90
14699;DHT22;7439;50.804;4.602;2022-09-09T09:22:18;15.00;99.90
14699;DHT22;7439;50.804;4.602;2022-09-09T09:24:53;14.90;1.00
14699;DHT22;7439;50.804;4.602;2022-09-09T09:27:29;14.90;1.00
14699;DHT22;7439;50.804;4.602;2022-09-09T09:29:59;14.90;1.00
14699;DHT22;7439;50.804;4.602;2022-09-09T09:32:30;14.90;19.90
14699;DHT22;7439;50.804;4.602;2022-09-09T09:35:02;14.90;99.90
14699;DHT22;7439;50.804;4.602;2022-09-09T09:37:35;14.90;99.90
14699;DHT22;7439;50.804;4.602;2022-09-09T09:40:12;14.90;99.90
14699;DHT22;7439;50.804;4.602;2022-09-09T09:42:48;14.90;99.90
14699;DHT22;7439;50.804;4.602;2022-09-09T09:45:18;15.00;1.00
14699;DHT22;7439;50.804;4.602;2022-09-09T09:47:58;15.00;1.00
14699;DHT22;7439;50.804;4.602;2022-09-09T09:50:25;15.00;1.00
14699;DHT22;7439;50.804;4.602;2022-09-09T09:52:56;15.00;1.00
14699;DHT22;7439;50.804;4.602;2022-09-09T09:55:26;15.10;1.00
14699;DHT22;7439;50.804;4.602;2022-09-09T09:58:01;15.10;82.70
14699;DHT22;7439;50.804;4.602;2022-09-09T10:00:29;15.20;99.90
14699;DHT22;7439;50.804;4.602;2022-09-09T10:02:56;15.20;99.90
14699;DHT22;7439;50.804;4.602;2022-09-09T10:05:27;15.20;99.90
14699;DHT22;7439;50.804;4.602;2022-09-09T10:08:03;15.10;99.90
14699;DHT22;7439;50.804;4.602;2022-09-09T10:10:41;15.10;99.90
14699;DHT22;7439;50.804;4.602;2022-09-09T10:13:14;15.10;99.90
14699;DHT22;7439;50.804;4.602;2022-09-09T10:15:48;15.10;99.90
14699;DHT22;7439;50.804;4.602;2022-09-09T10:18:34;15.20;1.00
14699;DHT22;7439;50.804;4.602;2022-09-09T10:21:11;15.10;1.00
14699;DHT22;7439;50.804;4.602;2022-09-09T10:23:58;15.20;1.00
14699;DHT22;7439;50.804;4.602;2022-09-09T10:26:38;15.10;1.00
14699;DHT22;7439;50.804;4.602;2022-09-09T10:29:22;15.20;1.00
14699;DHT22;7439;50.804;4.602;2022-09-09T10:31:56;15.20;1.00
14699;DHT22;7439;50.804;4.602;2022-09-09T10:34:40;15.20;1.00
14699;DHT22;7439;50.804;4.602;2022-09-09T10:37:19;15.20;1.00
14699;DHT22;7439;50.804;4.602;2022-09-09T10:39:51;15.20;1.00
14699;DHT22;7439;50.804;4.602;2022-09-09T10:42:30;15.20;1.00
14699;DHT22;7439;50.804;4.602;2022-09-09T10:45:07;15.30;1.00
14699;DHT22;7439;50.804;4.602;2022-09-09T10:47:47;15.40;1.00
14699;DHT22;7439;50.804;4.602;2022-09-09T10:53:18;15.70;1.00
14699;DHT22;7439;50.804;4.602;2022-09-09T10:55:50;15.80;99.90
14699;DHT22;7439;50.804;4.602;2022-09-09T10:58:23;15.80;99.90
14699;DHT22;7439;50.804;4.602;2022-09-09T11:00:55;15.80;99.90
14699;DHT22;7439;50.804;4.602;2022-09-09T11:03:29;15.80;99.90
14699;DHT22;7439;50.804;4.602;2022-09-09T11:06:01;15.90;99.90
14699;DHT22;7439;50.804;4.602;2022-09-09T11:08:34;16.00;99.90
14699;DHT22;7439;50.804;4.602;2022-09-09T11:11:03;16.00;7.70
14699;DHT22;7439;50.804;4.602;2022-09-09T11:13:39;16.00;1.00
14699;DHT22;7439;50.804;4.602;2022-09-09T11:16:19;16.00;1.00
14699;DHT22;7439;50.804;4.602;2022-09-09T11:18:48;15.90;1.00
14699;DHT22;7439;50.804;4.602;2022-09-09T11:21:23;16.10;1.00
14699;DHT22;7439;50.804;4.602;2022-09-09T11:23:55;16.20;1.00
14699;DHT22;7439;50.804;4.602;2022-09-09T11:26:30;16.40;99.90
14699;DHT22;7439;50.804;4.602;2022-09-09T11:32:11;16.70;99.90
14699;DHT22;7439;50.804;4.602;2022-09-09T11:34:50;16.70;1.00
14699;DHT22;7439;50.804;4.602;2022-09-09T11:37:47;16.70;99.90
14699;DHT22;7439;50.804;4.602;2022-09-09T11:40:22;16.80;99.90
14699;DHT22;7439;50.804;4.602;2022-09-09T11:43:01;17.00;99.90
14699;DHT22;7439;50.804;4.602;2022-09-09T11:45:34;17.20;1.00
14699;DHT22;7439;50.804;4.602;2022-09-09T11:48:03;17.10;1.00
14699;DHT22;7439;50.804;4.602;2022-09-09T11:50:36;17.00;99.90
14699;DHT22;7439;50.804;4.602;2022-09-09T11:53:19;17.00;99.90
14699;DHT22;7439;50.804;4.602;2022-09-09T11:56:10;17.00;99.90
14699;DHT22;7439;50.804;4.602;2022-09-09T11:58:43;17.00;26.90
14699;DHT22;7439;50.804;4.602;2022-09-09T12:01:38;17.10;49.40
14699;DHT22;7439;50.804;4.602;2022-09-09T12:04:30;17.20;1.00
14699;DHT22;7439;50.804;4.602;2022-09-09T12:07:00;17.20;1.00
14699;DHT22;7439;50.804;4.602;2022-09-09T12:09:44;17.20;1.00
14699;DHT22;7439;50.804;4.602;2022-09-09T12:12:32;17.10;1.00
14699;DHT22;7439;50.804;4.602;2022-09-09T12:15:19;17.10;1.00
14699;DHT22;7439;50.804;4.602;2022-09-09T12:17:51;17.10;1.00
14699;DHT22;7439;50.804;4.602;2022-09-09T12:20:20;17.20;1.00
14699;DHT22;7439;50.804;4.602;2022-09-09T12:23:24;17.40;1.00
14699;DHT22;7439;50.804;4.602;2022-09-09T12:26:14;17.50;99.90
14699;DHT22;7439;50.804;4.602;2022-09-09T12:28:57;17.50;99.90
14699;DHT22;7439;50.804;4.602;2022-09-09T12:31:29;17.60;99.90
14699;DHT22;7439;50.804;4.602;2022-09-09T12:34:10;17.70;99.90
14699;DHT22;7439;50.804;4.602;2022-09-09T12:36:41;17.70;99.90
14699;DHT22;7439;50.804;4.602;2022-09-09T12:39:17;17.70;99.90
14699;DHT22;7439;50.804;4.602;2022-09-09T12:41:53;17.80;58.40
14699;DHT22;7439;50.804;4.602;2022-09-09T12:44:22;17.90;1.00
14699;DHT22;7439;50.804;4.602;2022-09-09T12:46:51;18.00;1.00
14699;DHT22;7439;50.804;4.602;2022-09-09T12:49:28;18.30;1.00
14699;DHT22;7439;50.804;4.602;2022-09-09T12:52:02;18.20;1.00
14699;DHT22;7439;50.804;4.602;2022-09-09T12:54:31;18.30;1.00
14699;DHT22;7439;50.804;4.602;2022-09-09T12:56:59;18.30;1.00
14699;DHT22;7439;50.804;4.602;2022-09-09T12:59:35;18.30;1.00
14699;DHT22;7439;50.804;4.602;2022-09-09T13:02:11;18.40;1.00
14699;DHT22;7439;50.804;4.602;2022-09-09T13:04:39;18.30;1.00
14699;DHT22;7439;50.804;4.602;2022-09-09T13:07:07;18.30;1.00
14699;DHT22;7439;50.804;4.602;2022-09-09T13:09:35;18.30;1.00
14699;DHT22;7439;50.804;4.602;2022-09-09T13:12:04;18.20;1.00
14699;DHT22;7439;50.804;4.602;2022-09-09T13:14:36;18.30;1.00
14699;DHT22;7439;50.804;4.602;2022-09-09T13:17:05;18.40;1.00
14699;DHT22;7439;50.804;4.602;2022-09-09T13:19:36;18.20;1.00
14699;DHT22;7439;50.804;4.602;2022-09-09T13:22:13;18.20;1.00
14699;DHT22;7439;50.804;4.602;2022-09-09T13:24:41;18.40;1.00
14699;DHT22;7439;50.804;4.602;2022-09-09T13:27:26;18.40;1.00
14699;DHT22;7439;50.804;4.602;2022-09-09T13:29:54;18.50;1.00
14699;DHT22;7439;50.804;4.602;2022-09-09T13:32:23;18.50;1.00
14699;DHT22;7439;50.804;4.602;2022-09-09T13:34:53;18.60;99.90
14699;DHT22;7439;50.804;4.602;2022-09-09T13:37:26;18.80;99.90
14699;DHT22;7439;50.804;4.602;2022-09-09T13:39:55;18.70;99.90
14699;DHT22;7439;50.804;4.602;2022-09-09T13:42:25;18.90;99.90
14699;DHT22;7439;50.804;4.602;2022-09-09T13:44:54;19.10;99.90
14699;DHT22;7439;50.804;4.602;2022-09-09T13:47:28;19.40;99.90
14699;DHT22;7439;50.804;4.602;2022-09-09T13:49:56;19.60;99.90
14699;DHT22;7439;50.804;4.602;2022-09-09T13:52:25;19.60;99.90
14699;DHT22;7439;50.804;4.602;2022-09-09T13:54:53;19.60;99.90
14699;DHT22;7439;50.804;4.602;2022-09-09T13:57:23;19.60;99.90
14699;DHT22;7439;50.804;4.602;2022-09-09T13:59:51;19.50;99.90
14699;DHT22;7439;50.804;4.602;2022-09-09T14:02:20;19.40;99.90
14699;DHT22;7439;50.804;4.602;2022-09-09T14:04:48;19.40;99.90
14699;DHT22;7439;50.804;4.602;2022-09-09T14:07:20;19.40;99.90
14699;DHT22;7439;50.804;4.602;2022-09-09T14:09:52;19.20;99.90
14699;DHT22;7439;50.804;4.602;2022-09-09T14:12:19;19.20;99.90
14699;DHT22;7439;50.804;4.602;2022-09-09T14:14:46;19.30;99.90
14699;DHT22;7439;50.804;4.602;2022-09-09T14:17:15;19.10;99.90
14699;DHT22;7439;50.804;4.602;2022-09-09T14:19:43;19.00;99.90
14699;DHT22;7439;50.804;4.602;2022-09-09T14:22:11;19.00;99.90
14699;DHT22;7439;50.804;4.602;2022-09-09T14:24:40;19.00;99.90
14699;DHT22;7439;50.804;4.602;2022-09-09T14:27:08;19.20;99.90
14699;DHT22;7439;50.804;4.602;2022-09-09T14:29:36;19.30;99.90
14699;DHT22;7439;50.804;4.602;2022-09-09T14:32:03;19.60;99.90
14699;DHT22;7439;50.804;4.602;2022-09-09T14:34:30;19.80;99.90
14699;DHT22;7439;50.804;4.602;2022-09-09T14:36:57;19.60;99.90
14699;DHT22;7439;50.804;4.602;2022-09-09T14:39:35;19.50;99.90
14699;DHT22;7439;50.804;4.602;2022-09-09T14:42:03;19.70;99.90
14699;DHT22;7439;50.804;4.602;2022-09-09T14:44:32;19.90;99.90
14699;DHT22;7439;50.804;4.602;2022-09-09T14:47:00;19.90;99.90
14699;DHT22;7439;50.804;4.602;2022-09-09T14:49:27;19.80;99.90
14699;DHT22;7439;50.804;4.602;2022-09-09T14:51:54;19.70;99.90
14699;DHT22;7439;50.804;4.602;2022-09-09T14:54:22;19.60;99.90
14699;DHT22;7439;50.804;4.602;2022-09-09T14:56:49;19.40;99.90
14699;DHT22;7439;50.804;4.602;2022-09-09T14:59:16;19.20;99.90
14699;DHT22;7439;50.804;4.602;2022-09-09T15:01:50;19.20;99.90
14699;DHT22;7439;50.804;4.602;2022-09-09T15:04:20;19.20;99.90
14699;DHT22;7439;50.804;4.602;2022-09-09T15:06:50;19.40;99.90
14699;DHT22;7439;50.804;4.602;2022-09-09T15:09:19;19.70;99.90
14699;DHT22;7439;50.804;4.602;2022-09-09T15:11:46;19.80;99.90
14699;DHT22;7439;50.804;4.602;2022-09-09T15:14:15;19.80;99.90
14699;DHT22;7439;50.804;4.602;2022-09-09T15:16:43;19.60;99.90
14699;DHT22;7439;50.804;4.602;2022-09-09T15:19:12;19.40;99.90
14699;DHT22;7439;50.804;4.602;2022-09-09T15:21:39;19.20;99.90
14699;DHT22;7439;50.804;4.602;2022-09-09T15:24:06;19.00;99.90
14699;DHT22;7439;50.804;4.602;2022-09-09T15:26:34;18.80;99.90
14699;DHT22;7439;50.804;4.602;2022-09-09T15:29:04;18.70;99.90
14699;DHT22;7439;50.804;4.602;2022-09-09T15:31:33;18.70;99.90
14699;DHT22;7439;50.804;4.602;2022-09-09T15:34:01;18.70;99.90
14699;DHT22;7439;50.804;4.602;2022-09-09T15:36:32;18.90;99.90
14699;DHT22;7439;50.804;4.602;2022-09-09T15:39:00;19.00;99.90
14699;DHT22;7439;50.804;4.602;2022-09-09T15:41:28;19.10;99.90
14699;DHT22;7439;50.804;4.602;2022-09-09T15:43:56;19.10;99.90
14699;DHT22;7439;50.804;4.602;2022-09-09T15:46:27;19.00;99.90
14699;DHT22;7439;50.804;4.602;2022-09-09T15:48:56;19.00;99.90
14699;DHT22;7439;50.804;4.602;2022-09-09T15:51:24;19.00;99.90
14699;DHT22;7439;50.804;4.602;2022-09-09T15:53:58;18.90;99.90
14699;DHT22;7439;50.804;4.602;2022-09-09T15:56:27;18.80;99.90
14699;DHT22;7439;50.804;4.602;2022-09-09T15:59:11;18.80;99.90
14699;DHT22;7439;50.804;4.602;2022-09-09T16:01:45;18.80;99.90
14699;DHT22;7439;50.804;4.602;2022-09-09T16:04:12;18.80;99.90
14699;DHT22;7439;50.804;4.602;2022-09-09T16:06:41;18.70;99.90
14699;DHT22;7439;50.804;4.602;2022-09-09T16:09:09;18.70;99.90
14699;DHT22;7439;50.804;4.602;2022-09-09T16:11:38;18.70;99.90
14699;DHT22;7439;50.804;4.602;2022-09-09T16:14:05;18.70;99.90
14699;DHT22;7439;50.804;4.602;2022-09-09T16:16:34;18.80;99.90
14699;DHT22;7439;50.804;4.602;2022-09-09T16:19:04;18.80;99.90
14699;DHT22;7439;50.804;4.602;2022-09-09T16:21:37;18.80;99.90
14699;DHT22;7439;50.804;4.602;2022-09-09T16:24:10;18.80;99.90
14699;DHT22;7439;50.804;4.602;2022-09-09T16:26:39;18.90;99.90
14699;DHT22;7439;50.804;4.602;2022-09-09T16:29:09;18.70;99.90
14699;DHT22;7439;50.804;4.602;2022-09-09T16:31:52;18.70;99.90
14699;DHT22;7439;50.804;4.602;2022-09-09T16:34:21;18.70;99.90
14699;DHT22;7439;50.804;4.602;2022-09-09T16:36:51;18.50;99.90
14699;DHT22;7439;50.804;4.602;2022-09-09T16:39:34;18.50;99.90
14699;DHT22;7439;50.804;4.602;2022-09-09T16:42:04;18.40;99.90
14699;DHT22;7439;50.804;4.602;2022-09-09T16:44:31;18.30;99.90
14699;DHT22;7439;50.804;4.602;2022-09-09T16:46:58;18.30;99.90
14699;DHT22;7439;50.804;4.602;2022-09-09T16:49:26;18.10;99.90
14699;DHT22;7439;50.804;4.602;2022-09-09T16:51:56;17.50;1.00
14699;DHT22;7439;50.804;4.602;2022-09-09T16:54:25;17.00;1.00
14699;DHT22;7439;50.804;4.602;2022-09-09T16:56:53;16.50;1.00
14699;DHT22;7439;50.804;4.602;2022-09-09T16:59:21;15.90;99.90
14699;DHT22;7439;50.804;4.602;2022-09-09T17:01:52;15.60;99.90
14699;DHT22;7439;50.804;4.602;2022-09-09T17:04:25;15.40;99.90
14699;DHT22;7439;50.804;4.602;2022-09-09T17:06:54;15.30;1.00
14699;DHT22;7439;50.804;4.602;2022-09-09T17:09:24;15.20;1.00
14699;DHT22;7439;50.804;4.602;2022-09-09T17:11:54;15.20;34.90
14699;DHT22;7439;50.804;4.602;2022-09-09T17:14:22;15.10;99.90
14699;DHT22;7439;50.804;4.602;2022-09-09T17:16:49;15.20;99.90
14699;DHT22;7439;50.804;4.602;2022-09-09T17:19:20;15.20;1.00
14699;DHT22;7439;50.804;4.602;2022-09-09T17:21:50;15.20;1.00
14699;DHT22;7439;50.804;4.602;2022-09-09T17:24:18;15.30;99.90
14699;DHT22;7439;50.804;4.602;2022-09-09T17:26:49;15.40;99.90
14699;DHT22;7439;50.804;4.602;2022-09-09T17:29:16;15.50;1.00
14699;DHT22;7439;50.804;4.602;2022-09-09T17:31:43;15.30;1.00
14699;DHT22;7439;50.804;4.602;2022-09-09T17:34:11;15.30;1.00
14699;DHT22;7439;50.804;4.602;2022-09-09T17:36:38;15.20;1.00
14699;DHT22;7439;50.804;4.602;2022-09-09T17:39:05;15.10;99.90